createdAt,value
2019-01-26T00:01:44.620Z,98991.03
2019-01-26T00:04:12.410Z,98984.96
2019-01-26T00:06:40.179Z,98981.44
2019-01-26T00:09:09.278Z,98981.94
2019-01-26T00:11:37.024Z,98983.70
2019-01-26T00:14:05.116Z,98988.67
2019-01-26T00:16:32.922Z,98980.73
2019-01-26T00:19:00.919Z,98969.70
2019-01-26T00:21:28.684Z,98967.08
2019-01-26T00:23:56.518Z,98969.64
2019-01-26T00:26:24.316Z,98965.07
2019-01-26T00:28:52.113Z,98960.09
2019-01-26T00:31:19.893Z,98956.52
2019-01-26T00:33:47.709Z,98952.03
2019-01-26T00:36:15.444Z,98943.42
2019-01-26T00:38:48.691Z,98947.53
2019-01-26T00:41:35.935Z,98951.88
2019-01-26T00:44:03.750Z,98943.02
2019-01-26T00:46:31.540Z,98946.92
2019-01-26T00:48:59.351Z,98936.86
2019-01-26T00:51:27.168Z,98941.59
2019-01-26T00:53:55.016Z,98945.77
2019-01-26T00:56:22.807Z,98938.81
2019-01-26T00:59:10.063Z,98942.77
2019-01-26T01:01:37.928Z,98939.40
2019-01-26T01:04:05.754Z,98926.94
2019-01-26T01:06:33.507Z,98932.84
2019-01-26T01:09:01.513Z,98928.30
2019-01-26T01:11:29.318Z,98920.56
2019-01-26T01:13:57.126Z,98911.19
2019-01-26T01:16:24.873Z,98922.58
2019-01-26T01:18:52.854Z,98917.27
2019-01-26T01:21:20.609Z,98911.63
2019-01-26T01:23:48.376Z,98910.87
2019-01-26T01:26:16.169Z,98909.30
2019-01-26T01:28:44.157Z,98899.80
2019-01-26T01:31:11.944Z,98899.84
2019-01-26T01:33:39.731Z,98896.48
2019-01-26T01:36:07.543Z,98901.38
2019-01-26T01:38:35.343Z,98895.39
2019-01-26T01:41:03.098Z,98894.50
2019-01-26T01:43:30.919Z,98893.08
2019-01-26T01:45:58.732Z,98888.06
2019-01-26T01:48:26.516Z,98879.82
2019-01-26T01:50:54.325Z,98880.91
2019-01-26T01:53:22.095Z,98882.20
2019-01-26T01:55:49.825Z,98870.55
2019-01-26T01:58:17.616Z,98873.14
2019-01-26T02:00:45.428Z,98871.80
2019-01-26T02:03:13.226Z,98869.07
2019-01-26T02:05:40.986Z,98868.70
2019-01-26T02:08:18.892Z,98860.47
2019-01-26T02:10:46.620Z,98858.47
2019-01-26T02:13:14.368Z,98851.16
2019-01-26T02:15:42.174Z,98851.39
2019-01-26T02:18:09.951Z,98848.08
2019-01-26T02:20:37.730Z,98847.81
2019-01-26T02:23:05.525Z,98846.59
2019-01-26T02:25:33.284Z,98846.14
2019-01-26T02:28:06.226Z,98842.27
2019-01-26T02:30:34.021Z,98836.63
2019-01-26T02:33:01.854Z,98830.30
2019-01-26T02:35:30.983Z,98829.49
2019-01-26T02:37:58.755Z,98835.87
2019-01-26T02:40:26.515Z,98832.01
2019-01-26T02:42:54.357Z,98821.95
2019-01-26T02:45:22.134Z,98817.94
2019-01-26T02:47:50.162Z,98813.12
2019-01-26T02:50:17.920Z,98811.33
2019-01-26T02:52:45.771Z,98817.50
2019-01-26T02:55:13.703Z,98813.70
2019-01-26T02:57:46.774Z,98812.56
2019-01-26T03:00:18.174Z,98816.30
2019-01-26T03:02:45.981Z,98818.12
2019-01-26T03:05:14.211Z,98813.88
2019-01-26T03:07:42.202Z,98810.19
2019-01-26T03:10:12.799Z,98808.73
2019-01-26T03:12:40.606Z,98803.27
2019-01-26T03:15:10.951Z,98800.83
2019-01-26T03:17:38.997Z,98795.81
2019-01-26T03:20:08.966Z,98793.58
2019-01-26T03:22:36.748Z,98800.06
2019-01-26T03:25:05.513Z,98810.94
2019-01-26T03:27:33.419Z,98804.97
2019-01-26T03:30:01.213Z,98811.65
2019-01-26T03:32:29.515Z,98802.39
2019-01-26T03:34:57.333Z,98790.43
2019-01-26T03:37:25.420Z,98787.02
2019-01-26T03:39:53.203Z,98789.30
2019-01-26T03:42:21.053Z,98788.04
2019-01-26T03:44:48.807Z,98795.03
2019-01-26T03:47:16.623Z,98792.92
2019-01-26T03:49:44.422Z,98786.77
2019-01-26T03:52:12.217Z,98790.50
2019-01-26T03:54:39.949Z,98790.34
2019-01-26T03:57:07.735Z,98791.16
2019-01-26T03:59:35.519Z,98787.79
2019-01-26T04:02:03.484Z,98787.81
2019-01-26T04:04:31.245Z,98778.88
2019-01-26T04:06:59.028Z,98776.50
2019-01-26T04:09:27.017Z,98773.71
2019-01-26T04:11:54.840Z,98759.45
2019-01-26T04:14:22.635Z,98755.88
2019-01-26T04:16:50.423Z,98756.89
2019-01-26T04:19:18.215Z,98752.33
2019-01-26T04:21:46.613Z,98751.55
2019-01-26T04:24:14.392Z,98744.91
2019-01-26T04:26:42.231Z,98756.66
2019-01-26T04:29:11.404Z,98757.20
2019-01-26T04:31:39.541Z,98749.91
2019-01-26T04:34:26.780Z,98741.63
2019-01-26T04:36:54.531Z,98743.13
2019-01-26T04:39:22.587Z,98744.30
2019-01-26T04:41:50.346Z,98743.19
2019-01-26T04:44:18.136Z,98747.59
2019-01-26T04:46:45.907Z,98738.20
2019-01-26T04:49:13.940Z,98738.88
2019-01-26T04:51:41.771Z,98737.91
2019-01-26T04:54:09.959Z,98736.93
2019-01-26T04:56:37.763Z,98742.16
2019-01-26T04:59:05.603Z,98744.44
2019-01-26T05:01:33.443Z,98735.48
2019-01-26T05:04:01.217Z,98736.34
2019-01-26T05:06:28.950Z,98741.59
2019-01-26T05:08:56.727Z,98739.03
2019-01-26T05:11:24.473Z,98746.82
2019-01-26T05:13:52.307Z,98737.55
2019-01-26T05:16:20.076Z,98739.66
2019-01-26T05:18:47.862Z,98743.86
2019-01-26T05:21:15.625Z,98738.32
2019-01-26T05:23:43.446Z,98727.95
2019-01-26T05:26:11.200Z,98732.22
2019-01-26T05:28:39.080Z,98721.13
2019-01-26T05:31:06.872Z,98726.21
2019-01-26T05:33:34.664Z,98725.70
2019-01-26T05:36:02.423Z,98724.77
2019-01-26T05:38:30.509Z,98725.11
2019-01-26T05:40:58.247Z,98727.42
2019-01-26T05:43:26.039Z,98728.07
2019-01-26T05:45:53.786Z,98727.06
2019-01-26T05:48:21.828Z,98725.09
2019-01-26T05:50:49.676Z,98726.13
2019-01-26T05:53:17.421Z,98727.43
2019-01-26T05:55:45.282Z,98731.80
2019-01-26T05:58:13.178Z,98737.85
2019-01-26T06:00:40.970Z,98728.15
2019-01-26T06:03:08.736Z,98728.66
2019-01-26T06:05:36.496Z,98731.11
2019-01-26T06:08:04.528Z,98727.54
2019-01-26T06:10:32.322Z,98732.26
2019-01-26T06:13:00.113Z,98722.21
2019-01-26T06:15:27.921Z,98717.81
2019-01-26T06:17:55.994Z,98718.00
2019-01-26T06:20:23.779Z,98719.64
2019-01-26T06:22:51.700Z,98720.27
2019-01-26T06:25:21.097Z,98722.71
2019-01-26T06:27:48.864Z,98721.09
2019-01-26T06:30:19.735Z,98720.80
2019-01-26T06:32:47.486Z,98718.51
2019-01-26T06:35:15.346Z,98728.08
2019-01-26T06:37:43.723Z,98725.30
2019-01-26T06:40:13.741Z,98726.61
2019-01-26T06:42:41.499Z,98716.72
2019-01-26T06:45:10.403Z,98718.35
2019-01-26T06:47:38.207Z,98716.70
2019-01-26T06:50:08.880Z,98722.23
2019-01-26T06:52:36.657Z,98718.52
2019-01-26T06:55:06.362Z,98722.08
2019-01-26T06:57:34.178Z,98725.00
2019-01-26T07:00:01.993Z,98727.47
2019-01-26T07:02:29.824Z,98727.17
2019-01-26T07:05:02.984Z,98731.93
2019-01-26T07:07:30.883Z,98723.95
2019-01-26T07:09:58.673Z,98726.26
2019-01-26T07:12:26.527Z,98723.36
2019-01-26T07:14:54.349Z,98726.11
2019-01-26T07:17:22.963Z,98712.81
2019-01-26T07:19:50.738Z,98699.14
2019-01-26T07:22:18.572Z,98682.09
2019-01-26T07:24:46.373Z,98680.69
2019-01-26T07:27:14.189Z,98670.81
2019-01-26T07:29:42.059Z,98679.62
2019-01-26T07:32:09.867Z,98680.31
2019-01-26T07:34:37.702Z,98690.56
2019-01-26T07:37:05.458Z,98700.84
2019-01-26T07:39:33.255Z,98710.39
2019-01-26T07:42:01.065Z,98722.61
2019-01-26T07:44:28.861Z,98724.55
2019-01-26T07:46:56.715Z,98717.58
2019-01-26T07:49:24.715Z,98714.66
2019-01-26T07:51:52.596Z,98717.08
2019-01-26T07:54:20.400Z,98720.39
2019-01-26T07:56:48.207Z,98723.16
2019-01-26T07:59:16.097Z,98726.09
2019-01-26T08:01:44.217Z,98726.31
2019-01-26T08:04:12.064Z,98721.30
2019-01-26T08:06:39.876Z,98727.42
2019-01-26T08:09:08.467Z,98722.70
2019-01-26T08:11:36.270Z,98718.02
2019-01-26T08:14:06.229Z,98714.78
2019-01-26T08:16:38.450Z,98707.81
2019-01-26T08:19:08.942Z,98702.64
2019-01-26T08:21:36.720Z,98703.30
2019-01-26T08:24:04.724Z,98705.75
2019-01-26T08:26:32.537Z,98706.31
2019-01-26T08:29:00.330Z,98709.12
2019-01-26T08:31:28.194Z,98708.08
2019-01-26T08:33:55.956Z,98710.12
2019-01-26T08:36:23.775Z,98709.52
2019-01-26T08:38:53.550Z,98712.87
2019-01-26T08:41:21.434Z,98718.27
2019-01-26T08:43:49.236Z,98722.47
2019-01-26T08:46:17.061Z,98722.91
2019-01-26T08:48:50.177Z,98729.80
2019-01-26T08:51:18.003Z,98725.23
2019-01-26T08:53:45.809Z,98718.91
2019-01-26T08:56:13.634Z,98725.29
2019-01-26T08:58:46.463Z,98724.86
2019-01-26T09:01:14.265Z,98725.83
2019-01-26T09:03:50.245Z,98718.51
2019-01-26T09:06:28.206Z,98711.72
2019-01-26T09:09:01.471Z,98709.93
2019-01-26T09:11:29.275Z,98713.30
2019-01-26T09:13:57.095Z,98710.72
2019-01-26T09:16:25.008Z,98713.00
2019-01-26T09:18:52.792Z,98714.50
2019-01-26T09:21:20.582Z,98705.25
2019-01-26T09:23:48.371Z,98700.72
2019-01-26T09:26:16.121Z,98702.70
2019-01-26T09:28:43.900Z,98704.33
2019-01-26T09:31:11.669Z,98703.68
2019-01-26T09:33:39.522Z,98701.73
2019-01-26T09:36:07.344Z,98708.61
2019-01-26T09:38:35.557Z,98707.67
2019-01-26T09:41:03.865Z,98706.86
2019-01-26T09:43:31.680Z,98705.87
2019-01-26T09:45:59.859Z,98708.65
2019-01-26T09:48:27.811Z,98702.34
2019-01-26T09:50:55.624Z,98703.04
2019-01-26T09:53:23.462Z,98700.78
2019-01-26T09:55:51.333Z,98699.52
2019-01-26T09:58:24.230Z,98696.41
2019-01-26T10:00:52.096Z,98698.69
2019-01-26T10:03:19.953Z,98693.77
2019-01-26T10:05:47.715Z,98698.84
2019-01-26T10:08:53.360Z,98695.92
2019-01-26T10:11:21.163Z,98697.42
2019-01-26T10:13:49.021Z,98699.98
2019-01-26T10:16:16.888Z,98697.70
2019-01-26T10:18:59.984Z,98660.77
2019-01-26T10:21:27.843Z,98693.86
2019-01-26T10:23:55.635Z,98692.74
2019-01-26T10:26:23.428Z,98682.03
2019-01-26T10:28:51.313Z,98685.32
2019-01-26T10:31:19.109Z,98684.21
2019-01-26T10:33:46.980Z,98680.34
2019-01-26T10:36:23.098Z,98680.83
2019-01-26T10:39:22.723Z,98676.63
2019-01-26T10:42:16.139Z,98679.41
2019-01-26T10:44:44.748Z,98681.02
2019-01-26T10:47:12.554Z,98678.31
2019-01-26T10:49:40.402Z,98670.36
2019-01-26T10:52:08.381Z,98665.66
2019-01-26T10:54:36.250Z,98662.23
2019-01-26T10:57:04.908Z,98663.22
2019-01-26T10:59:32.743Z,98661.30
2019-01-26T11:02:00.608Z,98660.96
2019-01-26T11:04:28.404Z,98659.67
2019-01-26T11:06:56.245Z,98664.70
2019-01-26T11:09:24.088Z,98667.00
2019-01-26T11:11:51.883Z,98664.88
2019-01-26T11:14:19.766Z,98661.00
2019-01-26T11:16:47.533Z,98657.41
2019-01-26T11:19:15.477Z,98657.91
2019-01-26T11:21:43.311Z,98661.33
2019-01-26T11:24:11.148Z,98654.00
2019-01-26T11:26:38.956Z,98652.06
2019-01-26T11:29:06.785Z,98650.63
2019-01-26T11:31:35.393Z,98650.33
2019-01-26T11:34:04.181Z,98643.64
2019-01-26T11:36:31.990Z,98642.52
2019-01-26T11:39:00.046Z,98629.83
2019-01-26T11:41:27.840Z,98629.20
2019-01-26T11:43:55.729Z,98621.55
2019-01-26T11:46:28.050Z,98616.52
2019-01-26T11:48:57.188Z,98607.38
2019-01-26T11:52:03.119Z,98608.84
2019-01-26T11:54:30.950Z,98607.88
2019-01-26T11:57:15.523Z,98606.05
2019-01-26T11:59:45.362Z,98599.05
2019-01-26T12:02:29.907Z,98596.12
2019-01-26T12:05:13.468Z,98596.77
2019-01-26T12:07:56.423Z,98583.87
2019-01-26T12:10:24.431Z,98584.02
2019-01-26T12:12:52.216Z,98583.89
2019-01-26T12:15:20.079Z,98552.05
2019-01-26T12:17:48.021Z,98582.87
2019-01-26T12:20:34.320Z,98580.43
2019-01-26T12:23:02.760Z,98578.14
2019-01-26T12:25:30.649Z,98579.12
2019-01-26T12:27:58.735Z,98579.96
2019-01-26T12:30:26.666Z,98583.36
2019-01-26T12:32:54.548Z,98581.41
2019-01-26T12:35:22.441Z,98587.95
2019-01-26T12:37:50.699Z,98582.55
2019-01-26T12:40:18.648Z,98586.31
2019-01-26T12:42:46.554Z,98582.89
2019-01-26T12:45:17.122Z,98582.39
2019-01-26T12:47:45.023Z,98583.86
2019-01-26T12:50:12.949Z,98591.22
2019-01-26T12:52:40.860Z,98585.80
2019-01-26T12:55:10.926Z,98582.55
2019-01-26T12:57:38.776Z,98580.25
2019-01-26T13:00:14.145Z,98581.72
2019-01-26T13:02:41.976Z,98578.13
2019-01-26T13:05:09.776Z,98579.41
2019-01-26T13:07:37.735Z,98581.70
2019-01-26T13:10:12.000Z,98577.61
2019-01-26T13:12:39.859Z,98582.35
2019-01-26T13:15:15.029Z,98578.11
2019-01-26T13:17:42.685Z,98579.26
2019-01-26T13:20:12.588Z,98572.70
2019-01-26T13:22:40.401Z,98569.93
2019-01-26T13:25:10.077Z,98573.37
2019-01-26T13:27:37.960Z,98570.59
2019-01-26T13:30:11.295Z,98567.97
2019-01-26T13:32:39.113Z,98572.55
2019-01-26T13:35:07.126Z,98565.36
2019-01-26T13:38:06.603Z,98565.68
2019-01-26T13:40:38.495Z,98558.66
2019-01-26T13:43:09.575Z,98558.97
2019-01-26T13:45:42.591Z,98555.56
2019-01-26T13:48:13.761Z,98553.29
2019-01-26T13:50:42.039Z,98551.45
2019-01-26T13:53:09.980Z,98550.01
2019-01-26T13:55:41.072Z,98558.52
2019-01-26T13:58:10.032Z,98564.20
2019-01-26T14:00:38.519Z,98561.27
2019-01-26T14:03:06.502Z,98558.53
2019-01-26T14:05:35.534Z,98553.95
2019-01-26T14:08:03.590Z,98545.61
2019-01-26T14:10:31.395Z,98548.41
2019-01-26T14:12:59.272Z,98547.58
2019-01-26T14:15:30.377Z,98539.74
2019-01-26T14:17:58.309Z,98546.58
2019-01-26T14:20:26.499Z,98541.53
2019-01-26T14:22:54.752Z,98547.41
2019-01-26T14:25:22.723Z,98546.12
2019-01-26T14:27:53.656Z,98547.75
2019-01-26T14:30:29.473Z,98544.17
2019-01-26T14:32:57.457Z,98544.02
2019-01-26T14:35:29.884Z,98541.06
2019-01-26T14:38:05.858Z,98532.27
2019-01-26T14:40:36.869Z,98541.09
2019-01-26T14:43:04.941Z,98540.28
2019-01-26T14:45:32.778Z,98538.48
2019-01-26T14:48:00.822Z,98536.03
2019-01-26T14:50:28.730Z,98536.70
2019-01-26T14:52:56.652Z,98529.67
2019-01-26T14:55:25.290Z,98540.61
2019-01-26T14:57:53.923Z,98540.13
2019-01-26T15:00:28.592Z,98538.84
2019-01-26T15:02:56.413Z,98532.12
2019-01-26T15:05:25.772Z,98521.20
2019-01-26T15:07:57.433Z,98518.27
2019-01-26T15:10:25.490Z,98518.28
2019-01-26T15:12:53.665Z,98514.52
2019-01-26T15:15:26.312Z,98511.42
2019-01-26T15:17:57.516Z,98507.02
2019-01-26T15:20:28.988Z,98506.20
2019-01-26T15:22:56.790Z,98505.06
2019-01-26T15:25:27.650Z,98501.63
2019-01-26T15:27:55.570Z,98497.73
2019-01-26T15:30:27.312Z,98500.33
2019-01-26T15:32:55.262Z,98491.52
2019-01-26T15:35:23.134Z,98491.68
2019-01-26T15:37:50.992Z,98486.44
2019-01-26T15:40:19.086Z,98486.95
2019-01-26T15:42:47.023Z,98479.29
2019-01-26T15:45:21.850Z,98476.34
2019-01-26T15:47:49.656Z,98472.75
2019-01-26T15:50:17.783Z,98467.19
2019-01-26T15:52:45.649Z,98464.75
2019-01-26T15:55:16.085Z,98465.39
2019-01-26T15:57:43.929Z,98463.60
2019-01-26T16:00:23.853Z,98465.41
2019-01-26T16:02:58.118Z,98464.12
2019-01-26T16:05:25.908Z,98457.92
2019-01-26T16:07:54.334Z,98458.71
2019-01-26T16:10:22.591Z,98462.31
2019-01-26T16:12:51.040Z,98460.03
2019-01-26T16:15:38.810Z,98465.41
2019-01-26T16:18:11.253Z,98461.50
2019-01-26T16:20:39.073Z,98460.84
2019-01-26T16:23:09.536Z,98462.14
2019-01-26T16:25:36.558Z,98462.98
2019-01-26T16:28:09.827Z,98457.09
2019-01-26T16:30:37.721Z,98454.17
2019-01-26T16:33:05.504Z,98454.96
2019-01-26T16:35:33.302Z,98453.50
2019-01-26T16:38:01.162Z,98452.02
2019-01-26T16:40:31.848Z,98449.27
2019-01-26T16:42:59.690Z,98434.92
2019-01-26T16:45:30.919Z,98430.66
2019-01-26T16:47:58.920Z,98422.00
2019-01-26T16:50:28.265Z,98410.09
2019-01-26T16:52:56.443Z,98414.16
2019-01-26T16:55:24.210Z,98418.41
2019-01-26T16:57:57.350Z,98422.51
2019-01-26T17:00:35.830Z,98420.03
2019-01-26T17:03:04.553Z,98419.73
2019-01-26T17:05:32.344Z,98422.18
2019-01-26T17:08:00.545Z,98418.09
2019-01-26T17:10:35.930Z,98420.56
2019-01-26T17:13:03.935Z,98402.44
2019-01-26T17:15:31.731Z,98414.67
2019-01-26T17:17:59.570Z,98408.30
2019-01-26T17:20:34.793Z,98407.98
2019-01-26T17:22:58.785Z,98400.98
2019-01-26T17:25:46.044Z,98403.26
2019-01-26T17:28:14.028Z,98400.47
2019-01-26T17:30:43.142Z,98393.46
2019-01-26T17:33:10.944Z,98392.65
2019-01-26T17:35:38.790Z,98389.36
2019-01-26T17:38:31.340Z,98385.95
2019-01-26T17:40:59.194Z,98382.35
2019-01-26T17:43:36.162Z,98385.11
2019-01-26T17:46:04.307Z,98383.63
2019-01-26T17:48:35.203Z,98384.13
2019-01-26T17:51:03.114Z,98378.09
2019-01-26T17:53:30.964Z,98380.38
2019-01-26T17:55:58.856Z,98374.63
2019-01-26T17:58:26.710Z,98373.52
2019-01-26T18:00:56.762Z,98378.42
2019-01-26T18:03:24.659Z,98373.34
2019-01-26T18:05:52.460Z,98376.45
2019-01-26T18:08:20.350Z,98369.92
2019-01-26T18:10:48.164Z,98365.64
2019-01-26T18:13:16.123Z,98359.94
2019-01-26T18:15:43.922Z,98357.02
2019-01-26T18:18:11.845Z,98349.52
2019-01-26T18:20:39.680Z,98347.23
2019-01-26T18:23:07.622Z,98348.72
2019-01-26T18:25:39.532Z,98344.48
2019-01-26T18:28:07.428Z,98337.98
2019-01-26T18:30:36.552Z,98302.52
2019-01-26T18:33:09.647Z,98336.51
2019-01-26T18:35:37.849Z,98334.73
2019-01-26T18:38:10.542Z,98324.80
2019-01-26T18:40:41.225Z,98320.25
2019-01-26T18:43:12.609Z,98319.77
2019-01-26T18:45:40.460Z,98321.72
2019-01-26T18:48:12.362Z,98322.38
2019-01-26T18:50:43.014Z,98317.02
2019-01-26T18:53:11.722Z,98315.87
2019-01-26T18:55:42.762Z,98317.47
2019-01-26T18:58:10.868Z,98301.03
2019-01-26T19:00:45.878Z,98306.56
2019-01-26T19:04:21.036Z,98311.27
2019-01-26T19:06:54.512Z,98298.58
2019-01-26T19:09:34.310Z,98297.27
2019-01-26T19:12:02.251Z,98298.75
2019-01-26T19:14:33.325Z,98292.55
2019-01-26T19:17:01.293Z,98292.72
2019-01-26T19:19:29.078Z,98290.95
2019-01-26T19:21:56.852Z,98286.22
2019-01-26T19:24:25.717Z,98280.70
2019-01-26T19:26:53.561Z,98274.19
2019-01-26T19:29:26.521Z,98270.44
2019-01-26T19:31:55.638Z,98265.23
2019-01-26T19:34:23.928Z,98267.85
2019-01-26T19:36:52.893Z,98256.59
2019-01-26T19:39:24.922Z,98258.08
2019-01-26T19:41:54.192Z,98253.54
2019-01-26T19:44:22.408Z,98254.86
2019-01-26T19:46:51.772Z,98249.16
2019-01-26T19:49:19.844Z,98248.00
2019-01-26T19:51:47.742Z,98243.28
2019-01-26T19:54:22.956Z,98240.53
2019-01-26T19:56:52.225Z,98234.98
2019-01-26T19:59:20.121Z,98229.92
2019-01-26T20:01:47.966Z,98230.44
2019-01-26T20:04:15.809Z,98226.70
2019-01-26T20:06:43.682Z,98224.58
2019-01-26T20:09:11.857Z,98216.59
2019-01-26T20:11:39.778Z,98212.05
2019-01-26T20:14:07.751Z,98204.70
2019-01-26T20:16:36.464Z,98201.61
2019-01-26T20:19:04.637Z,98204.70
2019-01-26T20:21:32.481Z,98197.22
2019-01-26T20:24:01.113Z,98193.13
2019-01-26T20:26:28.939Z,98191.20
2019-01-26T20:28:56.951Z,98187.59
2019-01-26T20:31:24.757Z,98183.17
2019-01-26T20:33:52.756Z,98174.38
2019-01-26T20:36:20.657Z,98179.42
2019-01-26T20:38:48.546Z,98182.35
2019-01-26T20:41:16.388Z,98173.06
2019-01-26T20:43:44.298Z,98168.83
2019-01-26T20:46:12.084Z,98167.70
2019-01-26T20:48:40.021Z,98158.24
2019-01-26T20:51:07.927Z,98157.08
2019-01-26T20:53:35.806Z,98148.42
2019-01-26T20:56:03.750Z,98146.64
2019-01-26T20:58:31.588Z,98133.44
2019-01-26T21:00:59.592Z,98130.17
2019-01-26T21:03:27.389Z,98126.58
2019-01-26T21:05:55.194Z,98121.69
2019-01-26T21:08:33.103Z,98122.66
2019-01-26T21:11:00.945Z,98121.06
2019-01-26T21:13:28.830Z,98112.73
2019-01-26T21:15:56.589Z,98104.77
2019-01-26T21:18:29.698Z,98101.65
2019-01-26T21:20:57.498Z,98094.98
2019-01-26T21:23:25.355Z,98094.48
2019-01-26T21:25:53.172Z,98084.39
2019-01-26T21:28:21.030Z,98083.56
2019-01-26T21:30:48.868Z,98084.05
2019-01-26T21:33:17.191Z,98074.58
2019-01-26T21:35:45.004Z,98075.05
2019-01-26T21:38:12.971Z,98065.75
2019-01-26T21:40:40.798Z,98063.48
2019-01-26T21:43:08.655Z,98063.98
2019-01-26T21:45:36.497Z,98063.64
2019-01-26T21:48:04.560Z,98061.17
2019-01-26T21:50:32.417Z,98058.07
2019-01-26T21:53:00.258Z,98054.02
2019-01-26T21:55:28.239Z,98054.47
2019-01-26T21:58:01.387Z,98044.68
2019-01-26T22:00:31.954Z,98041.57
2019-01-26T22:03:00.770Z,98036.97
2019-01-26T22:05:28.682Z,98035.48
2019-01-26T22:07:57.510Z,98034.36
2019-01-26T22:10:25.790Z,98032.55
2019-01-26T22:12:53.606Z,98026.34
2019-01-26T22:15:22.321Z,98015.55
2019-01-26T22:17:50.426Z,98013.89
2019-01-26T22:20:23.618Z,98020.72
2019-01-26T22:22:51.441Z,98016.84
2019-01-26T22:25:19.738Z,98008.06
2019-01-26T22:27:47.536Z,98005.59
2019-01-26T22:30:21.111Z,97999.67
2019-01-26T22:32:48.968Z,97994.64
2019-01-26T22:35:16.721Z,97988.95
2019-01-26T22:38:04.211Z,97980.98
2019-01-26T22:40:34.404Z,97975.61
2019-01-26T22:43:02.632Z,97964.53
2019-01-26T22:45:30.549Z,97968.43
2019-01-26T22:47:58.303Z,97957.64
2019-01-26T22:50:26.532Z,97952.62
2019-01-26T22:52:54.350Z,97956.57
2019-01-26T22:55:22.163Z,97957.23
2019-01-26T22:57:50.223Z,97959.67
2019-01-26T23:00:51.945Z,97947.30
2019-01-26T23:03:35.082Z,97940.12
2019-01-26T23:06:43.445Z,97940.60
2019-01-26T23:09:54.193Z,97933.80
2019-01-26T23:13:12.874Z,97923.82
2019-01-26T23:16:29.138Z,97924.67
2019-01-26T23:19:34.285Z,97916.09
2019-01-26T23:22:45.750Z,97914.84
2019-01-26T23:26:14.175Z,97903.47
2019-01-26T23:29:36.941Z,97899.91
2019-01-26T23:32:04.754Z,97895.90
2019-01-26T23:34:32.621Z,97889.36
2019-01-26T23:37:00.469Z,97882.37
2019-01-26T23:39:28.305Z,97882.55
2019-01-26T23:41:56.051Z,97880.61
2019-01-26T23:44:23.912Z,97877.51
2019-01-26T23:46:51.727Z,97874.08
2019-01-26T23:49:39.061Z,97869.34
2019-01-26T23:52:06.834Z,97859.57
2019-01-26T23:54:54.122Z,97852.58
2019-01-26T23:57:21.927Z,97840.52
2019-01-26T23:59:49.737Z,97836.43
